Time;durP1;ratioP1;P1;durP2;ratioP2;P2;SDS_P1;SDS_P2;PMS_P1;PMS_P2;Temp;Humidity;BMP_temperature;BMP_pressure;BME280_temperature;BME280_humidity;BME280_pressure;Samples;Min_cycle;Max_cycle;Signal;HPM_P1;HPM_P2
2024/01/30 00:01:51;;;;;;;15.77;10.90;;;10.50;91.00;;;;;;5035489;28;20111;-72
2024/01/30 00:04:17;;;;;;;15.35;10.75;;;10.50;91.00;;;;;;5034000;28;20036;-73
2024/01/30 00:06:45;;;;;;;14.30;10.85;;;10.40;91.00;;;;;;5038939;28;20025;-73
2024/01/30 00:09:11;;;;;;;14.70;10.70;;;10.40;91.10;;;;;;5033681;28;20033;-73
2024/01/30 00:11:38;;;;;;;16.92;11.60;;;10.50;91.10;;;;;;5039551;28;20083;-73
2024/01/30 00:14:04;;;;;;;16.25;11.27;;;10.50;91.00;;;;;;5032537;28;20034;-73
2024/01/30 00:16:30;;;;;;;17.38;11.65;;;10.40;91.00;;;;;;5043242;28;20237;-73
2024/01/30 00:18:57;;;;;;;16.63;11.55;;;10.40;91.10;;;;;;5039614;28;20486;-73
2024/01/30 00:21:23;;;;;;;17.05;11.95;;;10.40;91.10;;;;;;5043241;28;20462;-74
2024/01/30 00:23:49;;;;;;;17.10;12.05;;;10.40;91.20;;;;;;5028289;28;20221;-73
2024/01/30 00:26:15;;;;;;;17.20;11.50;;;10.40;91.00;;;;;;5030302;28;20053;-72
2024/01/30 00:28:44;;;;;;;15.32;11.32;;;10.40;91.10;;;;;;5031186;28;20016;-73
2024/01/30 00:31:13;;;;;;;15.25;11.00;;;10.40;91.10;;;;;;5031260;28;20071;-72
2024/01/30 00:33:39;;;;;;;16.38;11.20;;;10.50;91.20;;;;;;5039859;27;20032;-72
2024/01/30 00:36:07;;;;;;;15.70;10.75;;;10.40;91.00;;;;;;5043821;28;20390;-74
2024/01/30 00:38:32;;;;;;;15.35;10.85;;;10.40;91.10;;;;;;5028967;28;20499;-74
2024/01/30 00:40:58;;;;;;;14.50;11.63;;;10.50;90.90;;;;;;5028681;28;20449;-73
2024/01/30 00:43:27;;;;;;;14.98;10.98;;;10.50;91.00;;;;;;5038957;28;20024;-73
2024/01/30 00:45:53;;;;;;;15.88;11.05;;;10.40;91.10;;;;;;5035582;27;20059;-74
2024/01/30 00:48:20;;;;;;;14.93;11.35;;;10.50;91.00;;;;;;5033570;28;20014;-73
2024/01/30 00:50:46;;;;;;;14.77;10.73;;;10.50;91.00;;;;;;5041540;28;20174;-72
2024/01/30 00:53:12;;;;;;;15.70;11.60;;;10.50;91.00;;;;;;5044893;28;20092;-72
2024/01/30 00:55:37;;;;;;;16.45;11.10;;;10.40;91.00;;;;;;5045383;28;20512;-74
2024/01/30 00:58:04;;;;;;;16.10;10.60;;;10.50;91.00;;;;;;5042946;28;20365;-73
2024/01/30 01:00:30;;;;;;;16.27;11.80;;;10.40;91.00;;;;;;5046242;28;20036;-72
2024/01/30 01:02:56;;;;;;;15.88;12.07;;;10.40;91.20;;;;;;5037493;28;20013;-73
2024/01/30 01:05:22;;;;;;;15.18;10.77;;;10.50;91.10;;;;;;5032081;28;20040;-73
2024/01/30 01:07:48;;;;;;;16.10;11.02;;;10.40;91.10;;;;;;5045063;28;20028;-72
2024/01/30 01:10:15;;;;;;;16.42;11.23;;;10.40;91.10;;;;;;5030417;28;20045;-72
2024/01/30 01:12:41;;;;;;;15.30;11.93;;;10.40;91.20;;;;;;5041814;28;20013;-75
2024/01/30 01:15:09;;;;;;;17.10;11.05;;;10.40;91.20;;;;;;5039966;27;20053;-73
2024/01/30 01:17:36;;;;;;;13.60;10.32;;;10.40;91.20;;;;;;5039814;28;20013;-72
2024/01/30 01:20:03;;;;;;;15.90;11.50;;;10.40;91.20;;;;;;5040336;28;20025;-72
2024/01/30 01:22:29;;;;;;;18.48;12.88;;;10.40;91.20;;;;;;5036781;28;20376;-73
2024/01/30 01:24:54;;;;;;;16.77;11.95;;;10.40;91.10;;;;;;5041014;28;20029;-72
2024/01/30 01:27:21;;;;;;;13.80;10.43;;;10.40;91.20;;;;;;5035912;28;20025;-73
2024/01/30 01:29:46;;;;;;;15.60;11.75;;;10.40;91.20;;;;;;5061043;28;20065;-72
2024/01/30 01:32:12;;;;;;;17.42;11.48;;;10.40;91.20;;;;;;5063999;28;20021;-73
2024/01/30 01:34:38;;;;;;;15.85;11.43;;;10.40;91.20;;;;;;5062844;28;20101;-73
2024/01/30 01:37:04;;;;;;;14.98;11.30;;;10.40;91.30;;;;;;5050247;28;20057;-73
2024/01/30 01:39:29;;;;;;;16.08;11.43;;;10.40;91.40;;;;;;5054096;28;20035;-72
2024/01/30 01:41:55;;;;;;;16.33;11.48;;;10.40;91.40;;;;;;5052810;28;20077;-72
2024/01/30 01:44:21;;;;;;;17.75;12.10;;;10.40;91.40;;;;;;5048329;28;20037;-74
2024/01/30 01:46:48;;;;;;;15.23;10.65;;;10.40;91.40;;;;;;5056879;28;20056;-71
2024/01/30 01:49:14;;;;;;;15.90;11.13;;;10.40;91.30;;;;;;5066074;28;20192;-72
2024/01/30 01:51:41;;;;;;;16.75;11.75;;;10.40;91.40;;;;;;5056007;28;20545;-72
2024/01/30 01:54:08;;;;;;;16.77;11.90;;;10.40;91.30;;;;;;5056485;28;20052;-72
2024/01/30 01:56:35;;;;;;;16.85;12.35;;;10.40;91.30;;;;;;5054418;28;20047;-71
2024/01/30 01:59:07;;;;;;;15.32;11.60;;;10.40;91.40;;;;;;5050716;28;20462;-72
2024/01/30 02:01:34;;;;;;;15.90;11.48;;;10.50;91.30;;;;;;5040424;28;20018;-73
2024/01/30 02:04:00;;;;;;;18.42;11.63;;;10.50;91.20;;;;;;5045680;28;20040;-72
2024/01/30 02:06:27;;;;;;;16.38;11.35;;;10.40;91.30;;;;;;5039599;28;20082;-72
2024/01/30 02:08:56;;;;;;;16.90;11.98;;;10.50;91.30;;;;;;5031775;28;20179;-72
2024/01/30 02:11:22;;;;;;;16.10;12.15;;;10.50;91.30;;;;;;5036287;28;20041;-72
2024/01/30 02:13:50;;;;;;;17.38;12.73;;;10.50;91.40;;;;;;5037174;28;20025;-72
2024/01/30 02:16:17;;;;;;;16.25;11.80;;;10.50;91.50;;;;;;5054003;28;20025;-71
2024/01/30 02:18:47;;;;;;;16.85;11.88;;;10.50;91.50;;;;;;5038850;28;20330;-72
2024/01/30 02:21:16;;;;;;;14.05;11.52;;;10.50;91.40;;;;;;5040997;28;20090;-72
2024/01/30 02:23:44;;;;;;;16.60;12.18;;;10.50;91.40;;;;;;5033895;28;20029;-72
2024/01/30 02:26:11;;;;;;;18.20;12.55;;;10.50;91.40;;;;;;5038344;28;20024;-72
2024/01/30 02:28:37;;;;;;;19.55;11.70;;;10.60;91.40;;;;;;5025429;28;20017;-72
2024/01/30 02:31:03;;;;;;;16.58;12.18;;;10.60;91.30;;;;;;5047900;28;20479;-72
2024/01/30 02:33:29;;;;;;;16.77;12.13;;;10.60;91.40;;;;;;5036374;28;20028;-72
2024/01/30 02:35:55;;;;;;;16.20;12.27;;;10.60;91.50;;;;;;5032915;28;20054;-72
2024/01/30 02:38:21;;;;;;;17.00;12.00;;;10.60;91.30;;;;;;5029576;28;20028;-71
2024/01/30 02:40:46;;;;;;;17.65;12.18;;;10.60;91.40;;;;;;5028710;28;20037;-72
2024/01/30 02:43:12;;;;;;;21.90;12.35;;;10.60;91.40;;;;;;5034601;28;20373;-72
2024/01/30 02:45:38;;;;;;;16.60;11.95;;;10.50;91.30;;;;;;5035428;28;20550;-72
2024/01/30 02:48:04;;;;;;;15.25;11.77;;;10.60;91.40;;;;;;5033495;28;20433;-72
2024/01/30 02:50:29;;;;;;;15.30;11.85;;;10.60;91.40;;;;;;5039018;28;20454;-72
2024/01/30 02:52:55;;;;;;;18.20;12.07;;;10.60;91.50;;;;;;5034066;28;21404;-71
2024/01/30 02:55:21;;;;;;;17.17;12.35;;;10.60;91.50;;;;;;5044846;28;20052;-72
2024/01/30 02:57:46;;;;;;;14.82;10.52;;;10.60;91.70;;;;;;5033886;28;20033;-72
2024/01/30 03:00:14;;;;;;;15.48;12.07;;;10.50;91.70;;;;;;5033148;28;20454;-72
2024/01/30 03:02:39;;;;;;;15.77;11.15;;;10.60;91.70;;;;;;5035391;28;20025;-72
2024/01/30 03:05:07;;;;;;;16.83;11.90;;;10.60;91.60;;;;;;5036298;28;20093;-72
2024/01/30 03:07:33;;;;;;;19.42;11.75;;;10.60;91.70;;;;;;5031281;28;20021;-72
2024/01/30 03:09:59;;;;;;;18.15;12.68;;;10.60;91.70;;;;;;5038036;28;20040;-72
2024/01/30 03:12:25;;;;;;;14.52;10.85;;;10.60;91.80;;;;;;5042022;28;20021;-72
2024/01/30 03:14:51;;;;;;;17.08;11.75;;;10.60;91.80;;;;;;5033083;28;20487;-72
2024/01/30 03:17:17;;;;;;;15.48;12.27;;;10.50;91.80;;;;;;5034954;28;20021;-72
2024/01/30 03:19:42;;;;;;;16.50;12.48;;;10.50;91.80;;;;;;5032334;28;20041;-72
2024/01/30 03:22:08;;;;;;;16.27;12.55;;;10.50;91.90;;;;;;5038107;28;20021;-72
2024/01/30 03:24:33;;;;;;;18.75;13.40;;;10.50;92.00;;;;;;5044432;28;20036;-72
2024/01/30 03:26:59;;;;;;;16.05;12.23;;;10.50;92.10;;;;;;5023622;28;20542;-72
2024/01/30 03:29:25;;;;;;;16.35;12.07;;;10.40;92.10;;;;;;5028362;28;20034;-72
2024/01/30 03:31:50;;;;;;;16.60;12.05;;;10.40;92.20;;;;;;5033635;28;20045;-72
2024/01/30 03:34:16;;;;;;;19.98;13.20;;;10.40;92.30;;;;;;5028826;28;20046;-72
2024/01/30 03:36:42;;;;;;;17.63;12.85;;;10.30;92.20;;;;;;5044139;28;20041;-72
2024/01/30 03:39:07;;;;;;;16.52;12.57;;;10.30;92.30;;;;;;5033170;28;20389;-73
2024/01/30 03:41:33;;;;;;;16.05;12.27;;;10.30;92.40;;;;;;5032154;28;20459;-73
2024/01/30 03:43:59;;;;;;;17.65;12.48;;;10.30;92.50;;;;;;5031443;28;20033;-72
2024/01/30 03:46:24;;;;;;;18.50;13.02;;;10.30;92.50;;;;;;5029075;28;20031;-71
2024/01/30 03:48:50;;;;;;;16.00;12.52;;;10.30;92.70;;;;;;5032960;28;20049;-72
2024/01/30 03:51:16;;;;;;;14.35;11.70;;;10.20;92.80;;;;;;5033200;28;20021;-71
2024/01/30 03:53:42;;;;;;;17.48;13.02;;;10.20;92.80;;;;;;5030194;28;20428;-73
2024/01/30 03:56:08;;;;;;;17.77;12.63;;;10.20;92.80;;;;;;5029738;28;20037;-72
2024/01/30 03:58:34;;;;;;;16.80;12.70;;;10.20;92.90;;;;;;5026385;28;20398;-72
2024/01/30 04:00:59;;;;;;;16.88;12.25;;;10.10;92.90;;;;;;5038951;28;20704;-72
2024/01/30 04:03:25;;;;;;;16.75;11.93;;;10.10;93.00;;;;;;5037636;28;20064;-72
2024/01/30 04:05:54;;;;;;;18.38;12.77;;;10.10;93.10;;;;;;5038976;28;20506;-71
2024/01/30 04:08:19;;;;;;;18.60;13.45;;;10.10;93.20;;;;;;5036074;28;20013;-72
2024/01/30 04:10:46;;;;;;;20.75;13.73;;;10.10;93.30;;;;;;5037655;28;20453;-72
2024/01/30 04:13:11;;;;;;;18.10;12.50;;;10.10;93.30;;;;;;5035928;28;20036;-75
2024/01/30 04:15:37;;;;;;;17.52;12.50;;;10.10;93.30;;;;;;5033816;28;20029;-72
2024/01/30 04:18:03;;;;;;;17.63;12.35;;;10.10;93.30;;;;;;5035500;28;20021;-71
2024/01/30 04:20:29;;;;;;;18.20;13.13;;;10.10;93.30;;;;;;5039706;28;20057;-73
2024/01/30 04:22:55;;;;;;;18.02;12.68;;;10.10;93.20;;;;;;5049671;28;20028;-73
2024/01/30 04:25:21;;;;;;;16.88;13.02;;;10.10;93.30;;;;;;5032837;28;20021;-72
2024/01/30 04:27:46;;;;;;;18.02;13.52;;;10.10;93.30;;;;;;5032076;28;20510;-72
2024/01/30 04:30:12;;;;;;;18.15;13.02;;;10.20;93.40;;;;;;5034600;28;20040;-73
2024/01/30 04:32:38;;;;;;;18.23;13.57;;;10.20;93.30;;;;;;5037359;28;20358;-74
2024/01/30 04:35:04;;;;;;;18.77;12.68;;;10.30;93.10;;;;;;5045775;27;20038;-75
2024/01/30 04:37:29;;;;;;;17.55;13.80;;;10.20;93.00;;;;;;5040014;28;20112;-73
2024/01/30 04:39:55;;;;;;;17.08;12.40;;;10.30;92.90;;;;;;5042467;28;20057;-73
2024/01/30 04:42:21;;;;;;;17.73;12.45;;;10.20;92.90;;;;;;5047347;28;20418;-73
2024/01/30 04:44:46;;;;;;;20.33;14.15;;;10.20;92.90;;;;;;5048628;28;20049;-74
2024/01/30 04:47:12;;;;;;;16.75;12.68;;;10.20;93.00;;;;;;5046703;28;20017;-73
2024/01/30 04:49:40;;;;;;;16.92;12.77;;;10.20;93.00;;;;;;5047350;28;20040;-75
2024/01/30 04:52:09;;;;;;;15.77;11.65;;;10.20;93.00;;;;;;5058938;28;20041;-74
2024/01/30 04:54:35;;;;;;;18.13;12.88;;;10.20;93.10;;;;;;5039775;28;20184;-72
2024/01/30 04:57:01;;;;;;;16.55;11.55;;;10.20;93.00;;;;;;5042275;28;20521;-73
2024/01/30 04:59:27;;;;;;;18.88;11.50;;;10.20;92.90;;;;;;5039101;28;20362;-73
2024/01/30 05:01:53;;;;;;;16.63;12.32;;;10.30;92.90;;;;;;5032682;28;20020;-73
2024/01/30 05:04:18;;;;;;;17.50;11.80;;;10.20;92.80;;;;;;5034987;28;20398;-73
2024/01/30 05:06:44;;;;;;;16.10;11.50;;;10.20;92.90;;;;;;5027187;28;20077;-73
2024/01/30 05:09:10;;;;;;;17.15;11.75;;;10.20;92.80;;;;;;5034642;28;20043;-72
2024/01/30 05:11:39;;;;;;;17.38;11.48;;;10.30;92.80;;;;;;5035625;28;20402;-73
2024/01/30 05:14:05;;;;;;;16.25;11.82;;;10.20;92.90;;;;;;5034324;28;20049;-73
2024/01/30 05:16:31;;;;;;;17.48;12.57;;;10.20;93.00;;;;;;5035467;28;20473;-73
2024/01/30 05:18:57;;;;;;;16.95;11.35;;;10.20;93.00;;;;;;5039086;28;20041;-73
2024/01/30 05:21:23;;;;;;;15.70;12.02;;;10.20;93.00;;;;;;5050218;28;20025;-73
2024/01/30 05:23:49;;;;;;;17.17;11.60;;;10.30;92.80;;;;;;5026912;28;20620;-74
2024/01/30 05:26:14;;;;;;;16.38;12.10;;;10.30;92.60;;;;;;5041031;28;20415;-72
2024/01/30 05:28:40;;;;;;;19.80;12.60;;;10.20;92.70;;;;;;5029520;28;20017;-73
2024/01/30 05:31:06;;;;;;;18.00;11.60;;;10.20;92.70;;;;;;5041854;28;20024;-73
2024/01/30 05:33:31;;;;;;;16.02;11.85;;;10.20;92.80;;;;;;5032800;28;20024;-73
2024/01/30 05:35:57;;;;;;;18.15;12.27;;;10.20;92.80;;;;;;5031938;28;20032;-73
2024/01/30 05:38:22;;;;;;;19.92;12.98;;;10.30;92.70;;;;;;5038367;28;20079;-72
2024/01/30 05:40:48;;;;;;;17.35;11.77;;;10.30;92.70;;;;;;5032696;28;20028;-74
2024/01/30 05:43:14;;;;;;;16.35;12.18;;;10.30;92.70;;;;;;5054888;28;20013;-72
2024/01/30 05:45:40;;;;;;;16.75;12.38;;;10.30;92.60;;;;;;5033852;28;20056;-73
2024/01/30 05:48:05;;;;;;;16.65;13.20;;;10.40;92.70;;;;;;5029541;28;20053;-72
2024/01/30 05:50:31;;;;;;;17.95;12.45;;;10.40;92.60;;;;;;5031082;28;20071;-74
2024/01/30 05:52:56;;;;;;;15.93;12.57;;;10.40;92.60;;;;;;5028945;28;20021;-73
2024/01/30 05:55:22;;;;;;;15.18;11.68;;;10.40;92.60;;;;;;5036781;28;20063;-73
2024/01/30 05:57:48;;;;;;;16.58;12.32;;;10.40;92.50;;;;;;5032250;28;20021;-74
2024/01/30 06:00:14;;;;;;;15.10;11.90;;;10.50;92.60;;;;;;5036225;28;20021;-73
2024/01/30 06:02:40;;;;;;;17.65;12.73;;;10.50;92.50;;;;;;5037746;28;20025;-73
2024/01/30 06:05:05;;;;;;;16.35;11.50;;;10.50;92.50;;;;;;5035888;28;20045;-74
2024/01/30 06:07:31;;;;;;;16.40;11.95;;;10.60;92.30;;;;;;5045222;28;20013;-73
2024/01/30 06:09:57;;;;;;;15.93;11.45;;;10.60;92.20;;;;;;5036686;28;20445;-73
2024/01/30 06:12:23;;;;;;;13.98;11.57;;;10.60;92.20;;;;;;5042487;28;20040;-75
2024/01/30 06:14:48;;;;;;;16.30;11.10;;;10.60;92.30;;;;;;5040601;28;20346;-73
2024/01/30 06:17:14;;;;;;;14.60;11.23;;;10.60;92.40;;;;;;5045834;28;20334;-72
2024/01/30 06:19:39;;;;;;;17.75;12.38;;;10.60;92.30;;;;;;5028897;28;20066;-72
2024/01/30 06:22:07;;;;;;;17.67;12.15;;;10.60;92.20;;;;;;5047538;28;20028;-73
2024/01/30 06:24:34;;;;;;;15.73;11.98;;;10.60;92.20;;;;;;5031266;28;20040;-73
2024/01/30 06:26:59;;;;;;;18.25;11.48;;;10.60;92.10;;;;;;5036634;28;20025;-71
2024/01/30 06:29:26;;;;;;;15.18;11.98;;;10.70;92.10;;;;;;5036683;28;20350;-71
2024/01/30 06:31:52;;;;;;;16.77;12.05;;;10.60;92.20;;;;;;5044788;28;20140;-73
2024/01/30 06:34:18;;;;;;;17.73;11.93;;;10.60;92.20;;;;;;5038028;28;20040;-72
2024/01/30 06:36:43;;;;;;;16.38;11.55;;;10.70;92.20;;;;;;5033080;28;20041;-72
2024/01/30 06:39:09;;;;;;;16.55;12.43;;;10.70;92.20;;;;;;5021189;28;20045;-73
2024/01/30 06:41:34;;;;;;;17.10;11.77;;;10.70;92.20;;;;;;5052998;28;20033;-73
2024/01/30 06:44:03;;;;;;;20.08;12.48;;;10.70;92.30;;;;;;5038756;28;20132;-73
2024/01/30 06:46:29;;;;;;;17.83;12.20;;;10.70;92.20;;;;;;5031738;28;20099;-73
2024/01/30 06:48:55;;;;;;;20.15;13.38;;;10.70;92.30;;;;;;5035189;28;20105;-72
2024/01/30 06:51:20;;;;;;;17.83;12.00;;;10.70;92.20;;;;;;5032084;28;20480;-73
2024/01/30 06:53:46;;;;;;;15.85;12.45;;;10.80;92.10;;;;;;5037837;28;20022;-73
2024/01/30 06:56:12;;;;;;;15.95;12.13;;;10.70;92.20;;;;;;5033143;28;20028;-72
2024/01/30 06:58:37;;;;;;;14.40;11.43;;;10.80;92.30;;;;;;5039269;28;20465;-73
2024/01/30 07:01:03;;;;;;;18.20;12.00;;;10.80;92.30;;;;;;5040450;28;20111;-72
2024/01/30 07:03:29;;;;;;;17.70;12.30;;;10.70;92.30;;;;;;5033893;28;20051;-71
2024/01/30 07:05:54;;;;;;;17.20;12.20;;;10.70;92.30;;;;;;5036446;28;20105;-72
2024/01/30 07:08:20;;;;;;;17.73;12.35;;;10.70;92.40;;;;;;5034853;28;20016;-72
2024/01/30 07:10:46;;;;;;;17.92;12.50;;;10.80;92.40;;;;;;5033608;28;20060;-72
2024/01/30 07:13:12;;;;;;;19.80;12.35;;;10.80;92.50;;;;;;5044239;28;20532;-72
2024/01/30 07:15:38;;;;;;;16.92;12.57;;;10.80;92.50;;;;;;5034512;28;20025;-72
2024/01/30 07:18:04;;;;;;;17.77;12.50;;;10.90;92.40;;;;;;5042201;28;20335;-75
2024/01/30 07:20:31;;;;;;;16.75;12.85;;;10.80;92.30;;;;;;5038777;28;20121;-73
2024/01/30 07:22:58;;;;;;;17.73;12.82;;;10.90;92.40;;;;;;5027825;28;20065;-72
2024/01/30 07:25:26;;;;;;;19.00;11.82;;;10.90;92.30;;;;;;5039785;28;20036;-73
2024/01/30 07:27:52;;;;;;;24.40;14.27;;;10.90;92.30;;;;;;5040087;28;20201;-71
2024/01/30 07:30:19;;;;;;;19.60;13.25;;;10.90;92.40;;;;;;5032703;28;20055;-72
2024/01/30 07:32:45;;;;;;;18.95;12.20;;;11.00;92.50;;;;;;5033785;28;20013;-71
2024/01/30 07:35:11;;;;;;;20.92;12.70;;;11.00;92.40;;;;;;5031309;28;20046;-73
2024/01/30 07:37:37;;;;;;;18.13;12.68;;;11.00;92.50;;;;;;5030871;28;20121;-71
2024/01/30 07:40:03;;;;;;;20.60;12.50;;;11.00;92.40;;;;;;5044783;28;20470;-71
2024/01/30 07:42:29;;;;;;;20.30;13.40;;;11.00;92.40;;;;;;5041369;28;20024;-73
2024/01/30 07:44:54;;;;;;;17.88;12.27;;;11.10;92.30;;;;;;5035908;28;20037;-72
2024/01/30 07:47:20;;;;;;;19.10;12.38;;;11.10;92.30;;;;;;5035715;28;20473;-72
2024/01/30 07:49:46;;;;;;;22.55;13.93;;;11.10;92.30;;;;;;5037893;28;20458;-72
2024/01/30 07:52:11;;;;;;;21.55;13.57;;;11.00;92.30;;;;;;5033203;28;20160;-75
2024/01/30 07:54:50;;;;;;;21.23;14.73;;;11.00;92.30;;;;;;5035802;28;20036;-73
2024/01/30 07:57:16;;;;;;;21.65;14.20;;;11.00;92.40;;;;;;5052066;28;20017;-73
2024/01/30 07:59:44;;;;;;;20.27;13.25;;;11.00;92.50;;;;;;5039966;28;20416;-72
2024/01/30 08:02:10;;;;;;;21.48;13.95;;;11.00;92.50;;;;;;5047470;28;20036;-72
2024/01/30 08:04:36;;;;;;;19.00;13.52;;;11.00;92.50;;;;;;5039997;28;20269;-70
2024/01/30 08:07:01;;;;;;;20.88;15.90;;;11.00;92.50;;;;;;5042430;28;20072;-71
2024/01/30 08:09:27;;;;;;;45.15;32.92;;;11.00;92.70;;;;;;5034178;28;20025;-71
2024/01/30 08:11:53;;;;;;;41.95;30.25;;;11.00;92.70;;;;;;5030086;28;20075;-69
2024/01/30 08:14:19;;;;;;;26.63;20.60;;;11.10;92.80;;;;;;5035465;28;20037;-69
2024/01/30 08:16:45;;;;;;;21.98;17.58;;;11.10;92.70;;;;;;5032828;28;20021;-69
2024/01/30 08:19:11;;;;;;;32.10;23.00;;;11.00;92.80;;;;;;5035639;28;20033;-69
2024/01/30 08:21:36;;;;;;;31.42;22.85;;;11.00;92.90;;;;;;5041512;28;20018;-69
2024/01/30 08:24:07;;;;;;;27.92;18.90;;;11.00;93.10;;;;;;5032304;28;20029;-69
2024/01/30 08:26:33;;;;;;;22.70;15.20;;;11.00;93.10;;;;;;5042652;28;20056;-68
2024/01/30 08:28:59;;;;;;;21.52;10.63;;;11.10;93.10;;;;;;5032498;28;20040;-69
2024/01/30 08:31:25;;;;;;;18.17;9.55;;;11.10;93.10;;;;;;5032945;28;20017;-69
2024/01/30 08:33:51;;;;;;;15.95;9.27;;;11.10;93.00;;;;;;5040020;28;20049;-68
2024/01/30 08:36:17;;;;;;;15.82;8.23;;;11.10;92.70;;;;;;5036828;28;20384;-69
2024/01/30 08:38:43;;;;;;;16.48;7.78;;;11.10;92.50;;;;;;5041672;28;20036;-69
2024/01/30 08:41:08;;;;;;;13.70;7.70;;;11.20;92.40;;;;;;5041871;28;20342;-69
2024/01/30 08:43:34;;;;;;;16.65;7.38;;;11.20;92.20;;;;;;5037121;28;20059;-69
2024/01/30 08:46:00;;;;;;;13.75;5.80;;;11.20;92.10;;;;;;5040646;28;20492;-68
2024/01/30 08:48:26;;;;;;;15.95;6.30;;;11.20;91.60;;;;;;5042029;28;20032;-67
2024/01/30 08:50:53;;;;;;;14.88;6.97;;;11.20;91.40;;;;;;5048239;28;20024;-69
2024/01/30 08:53:19;;;;;;;14.00;5.53;;;11.30;91.10;;;;;;5051034;28;20127;-71
2024/01/30 08:55:45;;;;;;;11.27;4.95;;;11.30;90.80;;;;;;5042118;28;20104;-70
2024/01/30 08:58:11;;;;;;;11.05;4.88;;;11.30;90.50;;;;;;5044503;28;20112;-70
2024/01/30 09:00:37;;;;;;;14.35;4.47;;;11.30;90.20;;;;;;5034139;28;20068;-69
2024/01/30 09:03:03;;;;;;;15.45;5.05;;;11.40;90.20;;;;;;5033881;28;20024;-71
2024/01/30 09:05:29;;;;;;;13.63;4.78;;;11.40;90.10;;;;;;5044429;28;20095;-69
2024/01/30 09:07:54;;;;;;;13.68;4.10;;;11.40;89.90;;;;;;5044018;28;20453;-69
2024/01/30 09:10:20;;;;;;;9.80;3.72;;;11.30;89.50;;;;;;5038673;28;20036;-69
2024/01/30 09:12:46;;;;;;;9.57;3.50;;;11.30;89.40;;;;;;5041430;28;20057;-69
2024/01/30 09:15:12;;;;;;;11.98;3.75;;;11.30;89.10;;;;;;5029868;28;20051;-69
2024/01/30 09:17:37;;;;;;;12.57;4.07;;;11.10;88.70;;;;;;5047361;28;20361;-69
2024/01/30 09:20:04;;;;;;;9.10;2.90;;;11.10;88.80;;;;;;5028051;28;20103;-69
2024/01/30 09:22:30;;;;;;;7.50;3.20;;;11.10;88.80;;;;;;5041287;28;20035;-70
2024/01/30 09:24:55;;;;;;;10.02;3.35;;;11.00;88.50;;;;;;5036487;28;20033;-71
2024/01/30 09:27:21;;;;;;;15.50;3.80;;;11.10;88.60;;;;;;5051628;28;20028;-69
2024/01/30 09:29:46;;;;;;;10.77;4.10;;;11.10;88.50;;;;;;5029076;28;20319;-69
2024/01/30 09:32:12;;;;;;;10.52;4.10;;;11.20;88.30;;;;;;5026616;28;20018;-69
2024/01/30 09:34:39;;;;;;;10.32;5.10;;;11.20;88.50;;;;;;5032194;28;20059;-69
2024/01/30 09:37:05;;;;;;;13.63;5.03;;;11.20;88.30;;;;;;5038571;28;20442;-69
2024/01/30 09:39:30;;;;;;;11.02;3.97;;;11.10;88.40;;;;;;5046893;28;20057;-69
2024/01/30 09:42:06;;;;;;;11.50;3.78;;;11.10;88.30;;;;;;5047781;28;20020;-70
2024/01/30 09:44:34;;;;;;;17.05;3.42;;;11.20;88.40;;;;;;5036336;28;20091;-69
2024/01/30 09:47:03;;;;;;;6.43;2.05;;;11.20;88.10;;;;;;5026856;28;20479;-68
2024/01/30 09:49:32;;;;;;;5.55;1.80;;;11.20;87.00;;;;;;5025466;28;20045;-69
2024/01/30 09:51:58;;;;;;;5.28;1.80;;;11.10;86.70;;;;;;5038560;28;20013;-69
2024/01/30 09:54:23;;;;;;;4.53;1.65;;;10.80;86.40;;;;;;5038041;28;20043;-69
2024/01/30 09:56:49;;;;;;;3.97;1.67;;;10.60;86.50;;;;;;5032824;28;20033;-68
2024/01/30 09:59:15;;;;;;;5.90;1.70;;;10.60;86.60;;;;;;5028041;28;20029;-69
2024/01/30 10:01:42;;;;;;;8.27;1.88;;;10.70;86.60;;;;;;5024918;28;20025;-69
2024/01/30 10:04:08;;;;;;;8.75;1.70;;;10.60;86.90;;;;;;5029837;28;20053;-69
2024/01/30 10:06:34;;;;;;;6.72;2.42;;;10.60;86.90;;;;;;5025077;28;20438;-69
2024/01/30 10:09:00;;;;;;;7.85;3.30;;;10.60;87.00;;;;;;5028894;28;20029;-69
2024/01/30 10:11:25;;;;;;;9.95;3.40;;;10.60;86.80;;;;;;5035625;28;20021;-69
2024/01/30 10:13:51;;;;;;;10.85;3.22;;;10.80;87.00;;;;;;5036343;28;20338;-69
2024/01/30 10:16:17;;;;;;;8.70;2.38;;;10.90;86.90;;;;;;5025930;28;20056;-68
2024/01/30 10:18:43;;;;;;;6.68;2.20;;;11.00;86.80;;;;;;5043455;28;20109;-69
2024/01/30 10:21:09;;;;;;;9.07;2.70;;;11.10;85.80;;;;;;5036256;28;20527;-68
2024/01/30 10:23:36;;;;;;;8.70;2.38;;;11.10;85.30;;;;;;5042171;28;20021;-68
2024/01/30 10:26:04;;;;;;;9.65;1.90;;;11.20;84.70;;;;;;5031774;28;20374;-70
2024/01/30 10:28:30;;;;;;;6.63;1.80;;;11.30;84.70;;;;;;5038067;28;20067;-70
2024/01/30 10:31:05;;;;;;;4.70;1.75;;;11.20;84.50;;;;;;5032637;28;20029;-68
2024/01/30 10:33:31;;;;;;;9.50;2.08;;;11.30;84.10;;;;;;5032790;28;20021;-70
2024/01/30 10:36:04;;;;;;;10.32;2.05;;;11.40;84.20;;;;;;5032328;28;20052;-69
2024/01/30 10:38:31;;;;;;;6.97;2.40;;;11.40;83.90;;;;;;5038273;28;20024;-72
2024/01/30 10:40:58;;;;;;;9.00;2.38;;;11.50;83.50;;;;;;5037169;28;20037;-68
2024/01/30 10:43:31;;;;;;;6.38;2.17;;;11.60;83.50;;;;;;5033298;28;20028;-68
2024/01/30 10:45:59;;;;;;;7.82;1.95;;;11.60;82.90;;;;;;5032228;28;20509;-68
2024/01/30 10:48:29;;;;;;;8.38;2.05;;;11.50;82.50;;;;;;5029464;28;20443;-68
2024/01/30 10:50:57;;;;;;;8.73;1.60;;;11.50;82.60;;;;;;5028342;28;20025;-68
2024/01/30 10:53:24;;;;;;;8.45;2.08;;;11.50;82.60;;;;;;5036226;28;20392;-69
2024/01/30 10:55:52;;;;;;;7.95;2.20;;;11.40;83.20;;;;;;5041194;28;20355;-69
2024/01/30 10:58:19;;;;;;;6.68;2.10;;;11.40;83.20;;;;;;5043776;28;20009;-68
2024/01/30 11:00:45;;;;;;;10.73;2.00;;;11.40;82.90;;;;;;5036318;28;20032;-69
2024/01/30 11:03:12;;;;;;;7.75;2.10;;;11.40;82.80;;;;;;5034092;28;20017;-70
2024/01/30 11:05:40;;;;;;;7.50;1.70;;;11.40;83.10;;;;;;5028556;28;20030;-70
2024/01/30 11:08:13;;;;;;;9.30;2.13;;;11.40;82.90;;;;;;5039006;28;20462;-70
2024/01/30 11:10:48;;;;;;;8.07;2.45;;;11.40;83.00;;;;;;5040260;28;20029;-72
2024/01/30 11:13:15;;;;;;;5.18;1.70;;;11.40;82.80;;;;;;5038090;28;20025;-70
2024/01/30 11:15:41;;;;;;;7.35;2.58;;;11.40;82.70;;;;;;5039626;28;20104;-69
2024/01/30 11:18:06;;;;;;;8.32;2.00;;;11.40;82.80;;;;;;5042984;28;20102;-67
2024/01/30 11:20:33;;;;;;;9.93;2.10;;;11.40;82.70;;;;;;5037450;28;20040;-72
2024/01/30 11:23:01;;;;;;;9.05;3.00;;;11.50;83.10;;;;;;5040743;28;20140;-68
2024/01/30 11:25:27;;;;;;;10.02;2.60;;;11.50;82.80;;;;;;5037311;28;20045;-68
2024/01/30 11:27:54;;;;;;;7.07;2.40;;;11.50;82.90;;;;;;5041795;28;20024;-68
2024/01/30 11:30:28;;;;;;;7.95;1.70;;;11.40;82.40;;;;;;5033075;28;20377;-68
2024/01/30 11:32:59;;;;;;;6.32;1.77;;;11.40;82.30;;;;;;5034215;28;20086;-69
2024/01/30 11:35:25;;;;;;;9.60;1.98;;;11.20;82.60;;;;;;5034634;28;20059;-68
2024/01/30 11:37:52;;;;;;;4.63;1.55;;;11.20;82.30;;;;;;5032310;28;20049;-69
2024/01/30 11:40:18;;;;;;;7.88;1.90;;;11.10;82.00;;;;;;5035405;28;20037;-68
2024/01/30 11:42:45;;;;;;;5.25;1.52;;;11.00;82.40;;;;;;5036358;28;20021;-68
2024/01/30 11:45:11;;;;;;;4.32;1.60;;;11.00;82.70;;;;;;5032149;28;20103;-69
2024/01/30 11:47:38;;;;;;;8.70;1.92;;;10.90;82.60;;;;;;5030892;28;20021;-68
2024/01/30 11:50:06;;;;;;;7.00;1.98;;;10.80;82.50;;;;;;5030750;28;20346;-68
2024/01/30 11:52:35;;;;;;;5.88;1.60;;;10.80;82.60;;;;;;5036279;28;20353;-69
2024/01/30 11:55:01;;;;;;;7.05;1.88;;;10.80;83.10;;;;;;5029431;28;20171;-69
2024/01/30 11:57:27;;;;;;;7.18;1.90;;;10.80;83.30;;;;;;5037289;28;20452;-69
2024/01/30 11:59:53;;;;;;;10.02;2.05;;;10.70;83.80;;;;;;5029762;28;20029;-69
2024/01/30 12:02:19;;;;;;;5.07;1.48;;;10.60;84.10;;;;;;5035026;28;20455;-69
2024/01/30 12:04:45;;;;;;;7.32;1.67;;;10.60;84.70;;;;;;5035433;28;20101;-68
2024/01/30 12:07:11;;;;;;;10.02;2.10;;;10.50;84.90;;;;;;5036670;28;20056;-68
2024/01/30 12:09:37;;;;;;;8.98;2.03;;;10.50;84.50;;;;;;5036334;28;20361;-70
2024/01/30 12:12:03;;;;;;;3.30;1.58;;;10.40;84.30;;;;;;5028304;28;20021;-70
2024/01/30 12:14:29;;;;;;;7.07;1.70;;;10.30;84.10;;;;;;5028901;28;20365;-70
2024/01/30 12:16:55;;;;;;;7.35;1.30;;;10.40;83.80;;;;;;5035310;28;20113;-68
2024/01/30 12:19:24;;;;;;;6.50;1.95;;;10.40;83.60;;;;;;5029191;28;20030;-69
2024/01/30 12:21:59;;;;;;;6.35;1.75;;;10.40;83.70;;;;;;5028310;28;20012;-69
2024/01/30 12:24:30;;;;;;;9.00;2.05;;;10.50;83.80;;;;;;5032030;28;20056;-71
2024/01/30 12:26:59;;;;;;;4.15;1.45;;;10.50;83.80;;;;;;5038310;28;20013;-70
2024/01/30 12:29:25;;;;;;;6.50;2.13;;;10.50;83.20;;;;;;5033522;28;20033;-71